Terminal Aerodrome Forecast
Issued by NWS Springfield, MO

Home | Current Version | Previous Version | Text Only | Print | Product List | Glossary On
Versions: 1 2 3 4 5 6 7 8 9 10 11 12 13 14 15 16 17 18 19 20 21 22 23 24 25 26 27
000
FTUS43 KSGF 291000 AAA
TAFSGF
TAF AMD
KSGF 291052Z 2911/3006 16009KT 6SM -SHRA BR VCTS SCT025CB SCT060
      OVC150
      TEMPO 2913/2917 4SM -TSRA BR BKN025CB
     FM291700 19010KT 6SM -TSRA BR BKN025 OVC050CB=

USA.gov is the U.S. government's official web portal to all federal, state and local government web resources and services.